CheckWX is a tool to help pilots better visualize weather data.  It is not intended as a substitute for an official pre-flight weather briefing.

15:57:10 UTC

EGUN TAF
RAF Mildenhall Airport
Mildenhall, United Kingdom
TAF EGUN 141200Z 1412/1518 24020G30KT 9999 SCT040 510003 QNH2906INS TEMPO 1412/1415 25025G35KT 9000 -SHRA BKN020 BECMG 1420/1421 20020G30KT 9999 BKN100 510003 QNH2914INS BECMG 1500/1501 21020G30KT 8000 -RA BKN015 510003 QNH2913INS BECMG 1506/1507 21020G35KT 9999 NSW BKN040 510003 QNH2923INS BECMG 1510/1511 21010G20KT 9999 BKN040 510003 QNH2938INS TX07/1502Z TN04/1418Z

Dec-14@
12:00 UTC

Dec-14 @ 12:00 UTC

Dec-14@
20:00 UTC

Dec-14 @ 20:00 UTC

TAF EGUN 141200Z 1412/1518 24020G30KT 9999 SCT040 510003 QNH2906INS
Wind
  • 240° at 20 KTS
  • {Gusting to 30 KTS
Cloud Levels
  • Scattered at 4,000' AGL
Turbulence
< Light turbulence expected at the surface extending to 3,000' AGL

Dec-14@
12:00 UTC

Dec-14 @ 12:00 UTC

Dec-14@
15:00 UTC

Dec-14 @ 15:00 UTC

TEMPO 1412/1415 25025G35KT 9000 -SHRA BKN020

Expired

Wind
  • 250° at 25 KTS
  • {Gusting to 35 KTS
Conditions
Light Rain
Cloud Levels
  • Broken at 2,000' AGL

Dec-14@
20:00 UTC

Dec-14 @ 20:00 UTC

Dec-15@
00:00 UTC

Dec-15 @ 00:00 UTC

BECMG 1420/1421 20020G30KT 9999 BKN100 510003 QNH2914INS

Becoming

Becoming Conditions expected by Sat, Dec 14, 2019 @ 21:00 UTC

Wind
  • 200° at 20 KTS
  • {Gusting to 30 KTS
Cloud Levels
  • Broken at 10,000' AGL
Turbulence
< Light turbulence expected at the surface extending to 3,000' AGL

Dec-15@
00:00 UTC

Dec-15 @ 00:00 UTC

Dec-15@
06:00 UTC

Dec-15 @ 06:00 UTC

BECMG 1500/1501 21020G30KT 8000 -RA BKN015 510003 QNH2913INS

Becoming

Becoming Conditions expected by Sun, Dec 15, 2019 @ 01:00 UTC

Wind
  • 210° at 20 KTS
  • {Gusting to 30 KTS
Conditions
Light Rain
Cloud Levels
  • Broken at 1,500' AGL
Turbulence
< Light turbulence expected at the surface extending to 3,000' AGL

Dec-15@
06:00 UTC

Dec-15 @ 06:00 UTC

Dec-15@
10:00 UTC

Dec-15 @ 10:00 UTC

BECMG 1506/1507 21020G35KT 9999 NSW BKN040 510003 QNH2923INS

Becoming

Becoming Conditions expected by Sun, Dec 15, 2019 @ 07:00 UTC

Wind
  • 210° at 20 KTS
  • {Gusting to 35 KTS
Conditions
No significant weather
Cloud Levels
  • Broken at 4,000' AGL
Turbulence
< Light turbulence expected at the surface extending to 3,000' AGL

Dec-15@
10:00 UTC

Dec-15 @ 10:00 UTC

Dec-15@
18:00 UTC

Dec-15 @ 18:00 UTC

BECMG 1510/1511 21010G20KT 9999 BKN040 510003 QNH2938INS TX07/1502Z TN04/1418Z

Becoming

Becoming Conditions expected by Sun, Dec 15, 2019 @ 11:00 UTC

Wind
  • 210° at 10 KTS
  • {Gusting to 20 KTS
Conditions
No significant weather
Cloud Levels
  • Broken at 4,000' AGL
Turbulence
< Light turbulence expected at the surface extending to 3,000' AGL